createdAt,value
2023-04-02T00:03:53.496Z,6.90
2023-04-02T00:07:57.995Z,6.90
2023-04-02T00:12:15.356Z,6.70
2023-04-02T00:16:23.394Z,6.70
2023-04-02T00:20:27.234Z,6.60
2023-04-02T00:24:29.220Z,6.50
2023-04-02T00:28:31.224Z,6.50
2023-04-02T00:32:35.306Z,6.50
2023-04-02T00:36:37.477Z,6.60
2023-04-02T00:40:39.433Z,6.60
2023-04-02T00:44:43.769Z,6.50
2023-04-02T00:49:10.673Z,6.50
2023-04-02T00:53:25.833Z,6.40
2023-04-02T00:57:28.092Z,6.40
2023-04-02T01:01:36.600Z,6.30
2023-04-02T01:05:39.238Z,6.30
2023-04-02T01:10:02.452Z,6.30
2023-04-02T01:14:12.916Z,6.20
2023-04-02T01:18:40.698Z,6.10
2023-04-02T01:22:54.890Z,6.10
2023-04-02T01:26:59.816Z,6.00
2023-04-02T01:31:03.455Z,5.90
2023-04-02T01:35:05.818Z,6.00
2023-04-02T01:39:26.168Z,5.80
2023-04-02T01:43:45.507Z,5.80
2023-04-02T01:47:48.423Z,5.80
2023-04-02T01:51:56.694Z,5.70
2023-04-02T01:56:02.661Z,5.70
2023-04-02T02:00:12.681Z,5.70
2023-04-02T02:04:16.074Z,5.70
2023-04-02T02:08:39.349Z,5.70
2023-04-02T02:12:43.504Z,5.70
2023-04-02T02:16:47.173Z,5.70
2023-04-02T02:20:50.940Z,5.80
2023-04-02T02:24:53.669Z,5.70
2023-04-02T02:28:57.257Z,5.60
2023-04-02T02:33:23.899Z,5.60
2023-04-02T02:37:30.637Z,5.60
2023-04-02T02:41:44.621Z,5.60
2023-04-02T02:45:48.751Z,5.50
2023-04-02T02:49:58.858Z,5.60
2023-04-02T02:54:04.054Z,5.40
2023-04-02T02:58:11.253Z,5.50
2023-04-02T03:02:14.314Z,5.50
2023-04-02T03:06:20.502Z,5.50
2023-04-02T03:10:43.297Z,5.50
2023-04-02T03:14:53.074Z,5.40
2023-04-02T03:18:54.829Z,5.30
2023-04-02T03:23:19.214Z,5.30
2023-04-02T03:27:34.171Z,5.30
2023-04-02T03:31:41.451Z,5.20
2023-04-02T03:36:05.163Z,5.20
2023-04-02T03:40:15.796Z,5.30
2023-04-02T03:44:23.941Z,5.20
2023-04-02T03:48:39.155Z,5.20
2023-04-02T03:52:40.984Z,5.20
2023-04-02T03:56:47.221Z,5.20
2023-04-02T04:01:14.808Z,5.20
2023-04-02T04:05:24.505Z,5.20
2023-04-02T04:09:31.806Z,5.20
2023-04-02T04:13:51.242Z,5.20
2023-04-02T04:18:03.071Z,5.10
2023-04-02T04:22:31.773Z,5.10
2023-04-02T04:26:43.576Z,5.00
2023-04-02T04:31:17.836Z,4.90
2023-04-02T04:35:35.053Z,4.80
2023-04-02T04:39:42.335Z,4.70
2023-04-02T04:44:09.838Z,4.60
2023-04-02T04:48:26.706Z,4.70
2023-04-02T04:52:37.095Z,4.50
2023-04-02T04:56:39.789Z,4.50
2023-04-02T05:01:25.949Z,4.60
2023-04-02T05:05:31.072Z,4.50
2023-04-02T05:09:42.041Z,4.50
2023-04-02T05:13:54.068Z,4.40
2023-04-02T05:18:00.949Z,4.40
2023-04-02T05:22:14.263Z,4.40
2023-04-02T05:26:21.712Z,4.30
2023-04-02T05:30:23.315Z,4.40
2023-04-02T05:34:29.400Z,4.30
2023-04-02T05:38:35.348Z,4.30
2023-04-02T05:42:38.070Z,4.20
2023-04-02T05:46:54.944Z,4.10
2023-04-02T05:50:58.822Z,4.20
2023-04-02T05:55:27.554Z,4.20
2023-04-02T05:59:37.455Z,4.20
2023-04-02T06:04:06.215Z,4.10
2023-04-02T06:08:17.195Z,4.20
2023-04-02T06:12:33.005Z,4.20
2023-04-02T06:16:36.728Z,4.10
2023-04-02T06:20:38.443Z,4.20
2023-04-02T06:24:41.536Z,4.20
2023-04-02T06:28:47.992Z,4.20
2023-04-02T06:32:49.735Z,4.20
2023-04-02T06:36:56.427Z,4.20
2023-04-02T06:41:17.372Z,4.20
2023-04-02T06:45:31.046Z,4.10
2023-04-02T06:49:42.525Z,4.10
2023-04-02T06:53:49.501Z,4.20
2023-04-02T06:57:51.137Z,4.10
2023-04-02T07:02:16.518Z,4.00
2023-04-02T07:06:20.803Z,4.10
2023-04-02T07:10:23.610Z,4.10
2023-04-02T07:14:25.566Z,4.10
2023-04-02T07:18:32.328Z,4.10
2023-04-02T07:22:33.972Z,4.10
2023-04-02T07:26:35.650Z,4.10
2023-04-02T07:30:37.587Z,4.20
2023-04-02T07:34:40.652Z,4.20
2023-04-02T07:38:42.836Z,4.20
2023-04-02T07:42:45.219Z,4.30
2023-04-02T07:46:47.040Z,4.30
2023-04-02T07:50:48.807Z,4.20
2023-04-02T07:54:51.138Z,4.30
2023-04-02T07:58:52.909Z,4.40
2023-04-02T08:02:54.714Z,4.30
2023-04-02T08:06:56.477Z,4.30
2023-04-02T08:10:58.129Z,4.40
2023-04-02T08:14:59.952Z,4.40
2023-04-02T08:19:01.729Z,4.50
2023-04-02T08:23:04.239Z,4.60
2023-04-02T08:27:06.808Z,4.50
2023-04-02T08:31:08.913Z,4.60
2023-04-02T08:35:12.681Z,4.60
2023-04-02T08:39:14.613Z,4.60
2023-04-02T08:43:40.622Z,4.70
2023-04-02T08:47:44.199Z,4.80
2023-04-02T08:51:47.199Z,4.80
2023-04-02T08:56:17.590Z,4.90
2023-04-02T09:00:39.765Z,4.80
2023-04-02T09:04:41.768Z,4.80
2023-04-02T09:08:46.119Z,4.90
2023-04-02T09:12:52.248Z,4.90
2023-04-02T09:17:01.969Z,5.20
2023-04-02T09:21:23.373Z,5.50
2023-04-02T09:25:28.720Z,5.70
2023-04-02T09:29:45.379Z,5.50
2023-04-02T09:33:49.440Z,5.60
2023-04-02T09:38:18.268Z,5.80
2023-04-02T09:42:35.167Z,5.80
2023-04-02T09:46:36.990Z,5.40
2023-04-02T09:50:39.127Z,5.50
2023-04-02T09:54:43.560Z,5.70
2023-04-02T09:58:46.732Z,5.70
2023-04-02T10:03:05.038Z,5.70
2023-04-02T10:07:07.178Z,5.90
2023-04-02T10:11:13.871Z,5.90
2023-04-02T10:15:20.860Z,5.80
2023-04-02T10:19:37.457Z,5.60
2023-04-02T10:23:39.423Z,5.50
2023-04-02T10:27:47.322Z,5.60
2023-04-02T10:32:13.949Z,5.60
2023-04-02T10:36:38.631Z,5.70
2023-04-02T10:40:45.788Z,5.90
2023-04-02T10:44:55.489Z,5.80
2023-04-02T10:49:11.942Z,6.00
2023-04-02T10:53:21.910Z,6.00
2023-04-02T10:57:32.650Z,6.10
2023-04-02T11:01:36.098Z,6.10
2023-04-02T11:06:12.121Z,5.80
2023-04-02T11:10:16.683Z,5.60
2023-04-02T11:14:29.610Z,5.80
2023-04-02T11:18:37.319Z,6.00
2023-04-02T11:22:39.080Z,6.00
2023-04-02T11:26:42.653Z,5.80
2023-04-02T11:30:49.667Z,5.90
2023-04-02T11:35:05.219Z,5.90
2023-04-02T11:39:17.086Z,6.20
2023-04-02T11:43:35.336Z,6.40
2023-04-02T11:47:37.123Z,6.50
2023-04-02T11:51:38.932Z,6.70
2023-04-02T11:55:43.062Z,6.90
2023-04-02T12:00:10.981Z,7.30
2023-04-02T12:04:28.176Z,7.70
2023-04-02T12:09:04.785Z,7.80
2023-04-02T12:13:18.696Z,8.20
2023-04-02T12:17:34.909Z,9.20
2023-04-02T12:21:38.003Z,9.10
2023-04-02T12:25:40.646Z,8.80
2023-04-02T12:29:42.733Z,8.60
2023-04-02T12:33:44.703Z,7.80
2023-04-02T12:37:53.070Z,7.70
2023-04-02T12:41:55.037Z,7.60
2023-04-02T12:46:00.896Z,6.70
2023-04-02T12:50:02.834Z,6.80
2023-04-02T12:54:05.338Z,6.70
2023-04-02T12:58:27.530Z,6.70
2023-04-02T13:02:32.617Z,6.60
2023-04-02T13:06:36.217Z,6.40
2023-04-02T13:10:38.178Z,6.40
2023-04-02T13:14:40.170Z,6.20
2023-04-02T13:18:44.112Z,6.20
2023-04-02T13:22:45.869Z,6.40
2023-04-02T13:26:49.645Z,6.50
2023-04-02T13:30:51.543Z,6.60
2023-04-02T13:34:53.188Z,6.80
2023-04-02T13:38:55.638Z,6.60
2023-04-02T13:42:57.356Z,6.30
2023-04-02T13:46:59.919Z,6.30
2023-04-02T13:51:02.024Z,6.20
2023-04-02T13:55:04.232Z,6.20
2023-04-02T13:59:06.701Z,6.20
2023-04-02T14:03:13.829Z,6.40
2023-04-02T14:07:15.689Z,6.30
2023-04-02T14:11:43.738Z,6.30
2023-04-02T14:16:07.388Z,6.40
2023-04-02T14:20:29.979Z,6.50
2023-04-02T14:25:02.964Z,6.60
2023-04-02T14:29:16.126Z,6.70
2023-04-02T14:33:39.544Z,6.90
2023-04-02T14:38:12.524Z,6.70
2023-04-02T14:42:26.023Z,6.70
2023-04-02T14:46:30.644Z,6.90
2023-04-02T14:50:42.638Z,7.20
2023-04-02T14:55:03.387Z,7.50
2023-04-02T14:59:23.138Z,7.60
2023-04-02T15:04:06.663Z,7.50
2023-04-02T15:08:24.156Z,7.40
2023-04-02T15:12:28.705Z,7.40
2023-04-02T15:16:32.465Z,7.60
2023-04-02T15:20:57.271Z,7.80
2023-04-02T15:25:14.168Z,7.30
2023-04-02T15:29:34.895Z,7.30
2023-04-02T15:33:42.606Z,7.40
2023-04-02T15:38:13.191Z,7.40
2023-04-02T15:42:23.406Z,7.30
2023-04-02T15:46:59.366Z,7.50
2023-04-02T15:51:29.457Z,7.60
2023-04-02T15:55:49.194Z,7.70
2023-04-02T16:00:14.082Z,7.70
2023-04-02T16:04:19.714Z,7.70
2023-04-02T16:08:37.147Z,7.80
2023-04-02T16:12:40.595Z,7.80
2023-04-02T16:16:42.852Z,7.70
2023-04-02T16:20:48.618Z,7.70
2023-04-02T16:25:00.283Z,7.40
2023-04-02T16:29:41.006Z,7.30
2023-04-02T16:34:11.367Z,7.20
2023-04-02T16:38:38.919Z,7.10
2023-04-02T16:42:50.203Z,7.10
2023-04-02T16:47:04.634Z,7.00
2023-04-02T16:51:10.909Z,7.00
2023-04-02T16:55:12.556Z,6.90
2023-04-02T16:59:27.133Z,6.90
2023-04-02T17:03:34.575Z,6.80
2023-04-02T17:07:52.349Z,6.60
2023-04-02T17:12:11.094Z,6.70
2023-04-02T17:16:32.374Z,6.60
2023-04-02T17:20:34.430Z,6.60
2023-04-02T17:24:41.435Z,6.60
2023-04-02T17:28:45.936Z,6.60
2023-04-02T17:32:48.129Z,6.70
2023-04-02T17:37:15.096Z,6.70
2023-04-02T17:41:31.495Z,6.70
2023-04-02T17:45:38.393Z,6.60
2023-04-02T17:50:07.244Z,6.50
2023-04-02T17:54:25.622Z,6.40
2023-04-02T17:58:45.129Z,6.30
2023-04-02T18:03:02.014Z,6.10
2023-04-02T18:07:41.544Z,6.00
2023-04-02T18:12:30.515Z,6.00
2023-04-02T18:16:49.663Z,5.90
2023-04-02T18:21:11.653Z,5.80
2023-04-02T18:25:25.704Z,5.60
2023-04-02T18:29:31.020Z,5.50
2023-04-02T18:33:38.729Z,5.40
2023-04-02T18:37:57.941Z,5.30
2023-04-02T18:42:21.377Z,5.20
2023-04-02T18:46:31.971Z,5.00
2023-04-02T18:50:36.373Z,4.90
2023-04-02T18:54:51.101Z,4.70
2023-04-02T18:59:37.316Z,4.50
2023-04-02T19:03:50.197Z,4.50
2023-04-02T19:07:59.715Z,4.30
2023-04-02T19:12:03.779Z,4.10
2023-04-02T19:16:17.561Z,4.00
2023-04-02T19:20:52.894Z,3.90
2023-04-02T19:25:32.681Z,3.70
2023-04-02T19:30:08.081Z,3.50
2023-04-02T19:34:35.636Z,3.30
2023-04-02T19:39:05.463Z,3.20
2023-04-02T19:43:08.878Z,3.00
2023-04-02T19:47:11.549Z,2.90
2023-04-02T19:51:13.430Z,2.80
2023-04-02T19:55:15.359Z,2.80
2023-04-02T19:59:18.750Z,2.60
2023-04-02T20:03:20.994Z,2.40
2023-04-02T20:07:22.752Z,2.40
2023-04-02T20:11:26.490Z,2.30
2023-04-02T20:15:28.212Z,2.20
2023-04-02T20:19:30.036Z,2.20
2023-04-02T20:23:31.782Z,2.10
2023-04-02T20:27:33.507Z,2.00
2023-04-02T20:31:36.223Z,2.00
2023-04-02T20:35:37.966Z,1.90
2023-04-02T20:39:39.766Z,1.80
2023-04-02T20:43:42.605Z,1.70
2023-04-02T20:47:44.618Z,1.70
2023-04-02T20:51:47.868Z,1.60
2023-04-02T20:55:50.315Z,1.60
2023-04-02T20:59:52.023Z,1.50
2023-04-02T21:03:56.285Z,1.50
2023-04-02T21:07:58.154Z,1.30
2023-04-02T21:11:59.891Z,1.20
2023-04-02T21:16:02.374Z,1.20
2023-04-02T21:20:04.494Z,1.20
2023-04-02T21:24:08.358Z,1.10
2023-04-02T21:28:10.216Z,1.00
2023-04-02T21:32:20.752Z,1.00
2023-04-02T21:36:25.819Z,0.90
2023-04-02T21:40:27.546Z,0.90
2023-04-02T21:44:29.388Z,0.90
2023-04-02T21:48:31.761Z,0.80
2023-04-02T21:52:33.466Z,0.70
2023-04-02T21:56:37.983Z,0.70
2023-04-02T22:00:39.783Z,0.70
2023-04-02T22:04:41.775Z,0.70
2023-04-02T22:08:44.574Z,0.70
2023-04-02T22:12:46.571Z,0.60
2023-04-02T22:16:48.409Z,0.60
2023-04-02T22:20:54.821Z,0.60
2023-04-02T22:24:56.560Z,0.60
2023-04-02T22:28:58.870Z,0.50
2023-04-02T22:33:00.739Z,0.40
2023-04-02T22:37:02.494Z,0.40
2023-04-02T22:41:07.400Z,0.40
2023-04-02T22:45:09.390Z,0.40
2023-04-02T22:49:11.577Z,0.40
2023-04-02T22:53:15.125Z,0.40
2023-04-02T22:57:16.851Z,0.40
2023-04-02T23:01:21.271Z,0.40
2023-04-02T23:05:23.049Z,0.30
2023-04-02T23:09:24.887Z,0.30
2023-04-02T23:13:26.585Z,0.20
2023-04-02T23:17:28.300Z,0.20
2023-04-02T23:21:30.271Z,0.20
2023-04-02T23:25:32.041Z,0.20
2023-04-02T23:29:33.723Z,0.20
2023-04-02T23:33:35.594Z,0.20
2023-04-02T23:37:37.327Z,0.20
2023-04-02T23:41:41.556Z,0.20
2023-04-02T23:45:49.582Z,0.30
2023-04-02T23:49:51.261Z,0.30
2023-04-02T23:53:55.376Z,0.30
2023-04-02T23:57:57.185Z,0.20
